Terminal Aerodrome Forecast
Issued by NWS

Home | Current Version | Previous Version | Text Only | Print | Product List | Glossary On
Versions: 1 2 3 4 5 6 7 8 9 10 11 12 13 14 15 16 17
000
FTUS45 KSLC 222342
TAFBCE
TAF
KBCE 222342Z 2300/2324 20010KT P6SM VCSH SCT020 BKN040
     FM230200 19012KT 2SM -SN BR SCT007 BKN015
     FM230800 25010KT P6SM SCT010 BKN030
     FM232000 30012KT P6SM BKN030 BKN060=

USA.gov is the U.S. government's official web portal to all federal, state and local government web resources and services.